sensor_id;sensor_type;location;lat;lon;timestamp;temperature;humidity
66726;HTU21D;53638;51.062;5.804;2024-02-28T00:01:07;4.57;-6.00
66726;HTU21D;53638;51.062;5.804;2024-02-28T00:03:33;4.48;-6.00
66726;HTU21D;53638;51.062;5.804;2024-02-28T00:05:59;4.35;-6.00
66726;HTU21D;53638;51.062;5.804;2024-02-28T00:08:25;4.16;-6.00
66726;HTU21D;53638;51.062;5.804;2024-02-28T00:10:54;4.04;-6.00
66726;HTU21D;53638;51.062;5.804;2024-02-28T00:13:21;4.01;-6.00
66726;HTU21D;53638;51.062;5.804;2024-02-28T00:15:51;3.97;-6.00
66726;HTU21D;53638;51.062;5.804;2024-02-28T00:18:17;3.92;-6.00
66726;HTU21D;53638;51.062;5.804;2024-02-28T00:20:48;3.91;-6.00
66726;HTU21D;53638;51.062;5.804;2024-02-28T00:23:17;4.03;-6.00
66726;HTU21D;53638;51.062;5.804;2024-02-28T00:25:43;4.07;-6.00
66726;HTU21D;53638;51.062;5.804;2024-02-28T00:28:09;4.08;-6.00
66726;HTU21D;53638;51.062;5.804;2024-02-28T00:30:35;4.06;-6.00
66726;HTU21D;53638;51.062;5.804;2024-02-28T00:33:01;4.15;-6.00
66726;HTU21D;53638;51.062;5.804;2024-02-28T00:35:30;4.28;-6.00
66726;HTU21D;53638;51.062;5.804;2024-02-28T00:37:56;4.26;-6.00
66726;HTU21D;53638;51.062;5.804;2024-02-28T00:40:22;4.20;-6.00
66726;HTU21D;53638;51.062;5.804;2024-02-28T00:42:48;4.17;-6.00
66726;HTU21D;53638;51.062;5.804;2024-02-28T00:45:14;4.15;-6.00
66726;HTU21D;53638;51.062;5.804;2024-02-28T00:47:40;4.14;-6.00
66726;HTU21D;53638;51.062;5.804;2024-02-28T00:50:06;4.16;-6.00
66726;HTU21D;53638;51.062;5.804;2024-02-28T00:52:36;4.16;-6.00
66726;HTU21D;53638;51.062;5.804;2024-02-28T00:55:02;4.15;-6.00
66726;HTU21D;53638;51.062;5.804;2024-02-28T00:57:30;4.16;-6.00
66726;HTU21D;53638;51.062;5.804;2024-02-28T00:59:56;4.20;-6.00
66726;HTU21D;53638;51.062;5.804;2024-02-28T01:02:27;4.17;-6.00
66726;HTU21D;53638;51.062;5.804;2024-02-28T01:04:53;4.13;-6.00
66726;HTU21D;53638;51.062;5.804;2024-02-28T01:07:19;4.06;-6.00
66726;HTU21D;53638;51.062;5.804;2024-02-28T01:09:45;4.00;-6.00
66726;HTU21D;53638;51.062;5.804;2024-02-28T01:12:11;3.93;-6.00
66726;HTU21D;53638;51.062;5.804;2024-02-28T01:14:40;3.93;-6.00
66726;HTU21D;53638;51.062;5.804;2024-02-28T01:17:24;3.93;-6.00
66726;HTU21D;53638;51.062;5.804;2024-02-28T01:19:50;3.92;-6.00
66726;HTU21D;53638;51.062;5.804;2024-02-28T01:22:16;3.91;-6.00
66726;HTU21D;53638;51.062;5.804;2024-02-28T01:24:42;3.95;-6.00
66726;HTU21D;53638;51.062;5.804;2024-02-28T01:27:08;4.02;-6.00
66726;HTU21D;53638;51.062;5.804;2024-02-28T01:29:34;4.04;-6.00
66726;HTU21D;53638;51.062;5.804;2024-02-28T01:32:00;4.06;-6.00
66726;HTU21D;53638;51.062;5.804;2024-02-28T01:34:26;4.06;-6.00
66726;HTU21D;53638;51.062;5.804;2024-02-28T01:36:52;4.07;-6.00
66726;HTU21D;53638;51.062;5.804;2024-02-28T01:39:18;4.17;-6.00
66726;HTU21D;53638;51.062;5.804;2024-02-28T01:41:53;4.30;-6.00
66726;HTU21D;53638;51.062;5.804;2024-02-28T01:44:19;4.33;-6.00
66726;HTU21D;53638;51.062;5.804;2024-02-28T01:46:46;4.37;-6.00
66726;HTU21D;53638;51.062;5.804;2024-02-28T01:49:14;4.38;-6.00
66726;HTU21D;53638;51.062;5.804;2024-02-28T01:51:41;4.41;-6.00
66726;HTU21D;53638;51.062;5.804;2024-02-28T01:54:08;4.47;-6.00
66726;HTU21D;53638;51.062;5.804;2024-02-28T01:56:45;4.50;-6.00
66726;HTU21D;53638;51.062;5.804;2024-02-28T01:59:17;4.49;-6.00
66726;HTU21D;53638;51.062;5.804;2024-02-28T02:01:44;4.47;-6.00
66726;HTU21D;53638;51.062;5.804;2024-02-28T02:04:13;4.42;-6.00
66726;HTU21D;53638;51.062;5.804;2024-02-28T02:06:42;4.46;-6.00
66726;HTU21D;53638;51.062;5.804;2024-02-28T02:09:34;4.47;-6.00
66726;HTU21D;53638;51.062;5.804;2024-02-28T02:12:02;4.50;-6.00
66726;HTU21D;53638;51.062;5.804;2024-02-28T02:14:28;4.43;-6.00
66726;HTU21D;53638;51.062;5.804;2024-02-28T02:16:55;4.36;-6.00
66726;HTU21D;53638;51.062;5.804;2024-02-28T02:19:30;4.38;-6.00
66726;HTU21D;53638;51.062;5.804;2024-02-28T02:21:58;4.39;-6.00
66726;HTU21D;53638;51.062;5.804;2024-02-28T02:24:25;4.35;-6.00
66726;HTU21D;53638;51.062;5.804;2024-02-28T02:27:03;4.29;-6.00
66726;HTU21D;53638;51.062;5.804;2024-02-28T02:29:31;4.27;-6.00
66726;HTU21D;53638;51.062;5.804;2024-02-28T02:31:57;4.28;-6.00
66726;HTU21D;53638;51.062;5.804;2024-02-28T02:34:23;4.29;-6.00
66726;HTU21D;53638;51.062;5.804;2024-02-28T02:36:56;4.17;-6.00
66726;HTU21D;53638;51.062;5.804;2024-02-28T02:39:22;3.95;-6.00
66726;HTU21D;53638;51.062;5.804;2024-02-28T02:41:48;3.91;-6.00
66726;HTU21D;53638;51.062;5.804;2024-02-28T02:44:14;3.94;-6.00
66726;HTU21D;53638;51.062;5.804;2024-02-28T02:46:41;3.98;-6.00
66726;HTU21D;53638;51.062;5.804;2024-02-28T02:49:10;4.06;-6.00
66726;HTU21D;53638;51.062;5.804;2024-02-28T02:51:36;4.13;-6.00
66726;HTU21D;53638;51.062;5.804;2024-02-28T02:54:02;4.01;-6.00
66726;HTU21D;53638;51.062;5.804;2024-02-28T02:56:28;4.03;-6.00
66726;HTU21D;53638;51.062;5.804;2024-02-28T02:58:54;4.03;-6.00
66726;HTU21D;53638;51.062;5.804;2024-02-28T03:01:20;4.03;-6.00
66726;HTU21D;53638;51.062;5.804;2024-02-28T03:03:46;4.00;-6.00
66726;HTU21D;53638;51.062;5.804;2024-02-28T03:06:34;3.80;-6.00
66726;HTU21D;53638;51.062;5.804;2024-02-28T03:09:00;3.78;-6.00
66726;HTU21D;53638;51.062;5.804;2024-02-28T03:11:26;3.77;-6.00
66726;HTU21D;53638;51.062;5.804;2024-02-28T03:13:54;3.75;-6.00
66726;HTU21D;53638;51.062;5.804;2024-02-28T03:16:35;3.71;-6.00
66726;HTU21D;53638;51.062;5.804;2024-02-28T03:19:03;3.80;-6.00
66726;HTU21D;53638;51.062;5.804;2024-02-28T03:21:29;3.83;-6.00
66726;HTU21D;53638;51.062;5.804;2024-02-28T03:23:55;3.85;-6.00
66726;HTU21D;53638;51.062;5.804;2024-02-28T03:26:21;3.95;-6.00
66726;HTU21D;53638;51.062;5.804;2024-02-28T03:28:47;4.09;-6.00
66726;HTU21D;53638;51.062;5.804;2024-02-28T03:31:15;4.08;-6.00
66726;HTU21D;53638;51.062;5.804;2024-02-28T03:33:41;4.00;-6.00
66726;HTU21D;53638;51.062;5.804;2024-02-28T03:36:16;4.04;-6.00
66726;HTU21D;53638;51.062;5.804;2024-02-28T03:38:45;4.04;-6.00
66726;HTU21D;53638;51.062;5.804;2024-02-28T03:41:11;3.98;-6.00
66726;HTU21D;53638;51.062;5.804;2024-02-28T03:43:37;4.01;-6.00
66726;HTU21D;53638;51.062;5.804;2024-02-28T03:46:03;4.01;-6.00
66726;HTU21D;53638;51.062;5.804;2024-02-28T03:48:29;4.01;-6.00
66726;HTU21D;53638;51.062;5.804;2024-02-28T03:50:55;3.90;-6.00
66726;HTU21D;53638;51.062;5.804;2024-02-28T03:53:21;3.71;-6.00
66726;HTU21D;53638;51.062;5.804;2024-02-28T03:55:48;3.63;-6.00
66726;HTU21D;53638;51.062;5.804;2024-02-28T03:58:32;3.63;-6.00
66726;HTU21D;53638;51.062;5.804;2024-02-28T04:00:58;3.65;-6.00
66726;HTU21D;53638;51.062;5.804;2024-02-28T04:03:24;3.70;-6.00
66726;HTU21D;53638;51.062;5.804;2024-02-28T04:05:50;3.72;-6.00
66726;HTU21D;53638;51.062;5.804;2024-02-28T04:08:22;3.78;-6.00
66726;HTU21D;53638;51.062;5.804;2024-02-28T04:10:48;3.85;-6.00
66726;HTU21D;53638;51.062;5.804;2024-02-28T04:13:16;3.94;-6.00
66726;HTU21D;53638;51.062;5.804;2024-02-28T04:15:43;3.92;-6.00
66726;HTU21D;53638;51.062;5.804;2024-02-28T04:18:12;3.93;-6.00
66726;HTU21D;53638;51.062;5.804;2024-02-28T04:20:38;3.88;-6.00
66726;HTU21D;53638;51.062;5.804;2024-02-28T04:23:08;3.84;-6.00
66726;HTU21D;53638;51.062;5.804;2024-02-28T04:25:34;3.85;-6.00
66726;HTU21D;53638;51.062;5.804;2024-02-28T04:28:01;3.83;-6.00
66726;HTU21D;53638;51.062;5.804;2024-02-28T04:30:27;3.72;-6.00
66726;HTU21D;53638;51.062;5.804;2024-02-28T04:32:53;3.76;-6.00
66726;HTU21D;53638;51.062;5.804;2024-02-28T04:35:23;3.82;-6.00
66726;HTU21D;53638;51.062;5.804;2024-02-28T04:37:49;3.83;-6.00
66726;HTU21D;53638;51.062;5.804;2024-02-28T04:40:15;3.80;-6.00
66726;HTU21D;53638;51.062;5.804;2024-02-28T04:42:42;3.80;-6.00
66726;HTU21D;53638;51.062;5.804;2024-02-28T04:45:10;3.80;-6.00
66726;HTU21D;53638;51.062;5.804;2024-02-28T04:47:37;3.84;-6.00
66726;HTU21D;53638;51.062;5.804;2024-02-28T04:50:28;3.84;-6.00
66726;HTU21D;53638;51.062;5.804;2024-02-28T04:52:54;3.86;-6.00
66726;HTU21D;53638;51.062;5.804;2024-02-28T04:55:27;3.54;-6.00
66726;HTU21D;53638;51.062;5.804;2024-02-28T04:57:58;3.64;-6.00
66726;HTU21D;53638;51.062;5.804;2024-02-28T05:00:27;3.65;-6.00
66726;HTU21D;53638;51.062;5.804;2024-02-28T05:02:53;3.67;-6.00
66726;HTU21D;53638;51.062;5.804;2024-02-28T05:05:21;3.74;-6.00
66726;HTU21D;53638;51.062;5.804;2024-02-28T05:07:47;3.79;-6.00
66726;HTU21D;53638;51.062;5.804;2024-02-28T05:10:13;3.80;-6.00
66726;HTU21D;53638;51.062;5.804;2024-02-28T05:12:39;3.82;-6.00
66726;HTU21D;53638;51.062;5.804;2024-02-28T05:15:06;3.76;-6.00
66726;HTU21D;53638;51.062;5.804;2024-02-28T05:17:32;3.67;-6.00
66726;HTU21D;53638;51.062;5.804;2024-02-28T05:19:59;3.71;-6.00
66726;HTU21D;53638;51.062;5.804;2024-02-28T05:22:25;3.78;-6.00
66726;HTU21D;53638;51.062;5.804;2024-02-28T05:24:51;3.82;-6.00
66726;HTU21D;53638;51.062;5.804;2024-02-28T05:27:18;3.77;-6.00
66726;HTU21D;53638;51.062;5.804;2024-02-28T05:29:50;3.79;-6.00
66726;HTU21D;53638;51.062;5.804;2024-02-28T05:32:21;3.79;-6.00
66726;HTU21D;53638;51.062;5.804;2024-02-28T05:34:47;3.80;-6.00
66726;HTU21D;53638;51.062;5.804;2024-02-28T05:37:16;3.71;-6.00
66726;HTU21D;53638;51.062;5.804;2024-02-28T05:39:45;3.74;-6.00
66726;HTU21D;53638;51.062;5.804;2024-02-28T05:42:11;3.75;-6.00
66726;HTU21D;53638;51.062;5.804;2024-02-28T05:44:37;3.73;-6.00
66726;HTU21D;53638;51.062;5.804;2024-02-28T05:47:03;3.63;-6.00
66726;HTU21D;53638;51.062;5.804;2024-02-28T05:49:32;3.60;-6.00
66726;HTU21D;53638;51.062;5.804;2024-02-28T05:52:03;3.62;-6.00
66726;HTU21D;53638;51.062;5.804;2024-02-28T05:54:29;3.64;-6.00
66726;HTU21D;53638;51.062;5.804;2024-02-28T05:56:55;3.67;-6.00
66726;HTU21D;53638;51.062;5.804;2024-02-28T05:59:21;3.77;-6.00
66726;HTU21D;53638;51.062;5.804;2024-02-28T06:01:47;3.83;-6.00
66726;HTU21D;53638;51.062;5.804;2024-02-28T06:04:13;3.85;-6.00
66726;HTU21D;53638;51.062;5.804;2024-02-28T06:06:41;3.86;-6.00
66726;HTU21D;53638;51.062;5.804;2024-02-28T06:09:08;3.94;-6.00
66726;HTU21D;53638;51.062;5.804;2024-02-28T06:11:34;3.98;-6.00
66726;HTU21D;53638;51.062;5.804;2024-02-28T06:14:00;3.93;-6.00
66726;HTU21D;53638;51.062;5.804;2024-02-28T06:16:26;3.95;-6.00
66726;HTU21D;53638;51.062;5.804;2024-02-28T06:18:54;3.93;-6.00
66726;HTU21D;53638;51.062;5.804;2024-02-28T06:21:27;3.95;-6.00
66726;HTU21D;53638;51.062;5.804;2024-02-28T06:23:55;3.92;-6.00
66726;HTU21D;53638;51.062;5.804;2024-02-28T06:26:21;3.95;-6.00
66726;HTU21D;53638;51.062;5.804;2024-02-28T06:28:47;3.98;-6.00
66726;HTU21D;53638;51.062;5.804;2024-02-28T06:31:15;4.04;-6.00
66726;HTU21D;53638;51.062;5.804;2024-02-28T06:33:43;4.09;-6.00
66726;HTU21D;53638;51.062;5.804;2024-02-28T06:36:11;4.16;-6.00
66726;HTU21D;53638;51.062;5.804;2024-02-28T06:38:37;4.17;-6.00
66726;HTU21D;53638;51.062;5.804;2024-02-28T06:41:04;4.12;-6.00
66726;HTU21D;53638;51.062;5.804;2024-02-28T06:43:33;3.98;-6.00
66726;HTU21D;53638;51.062;5.804;2024-02-28T06:46:04;4.08;-6.00
66726;HTU21D;53638;51.062;5.804;2024-02-28T06:48:30;4.15;-6.00
66726;HTU21D;53638;51.062;5.804;2024-02-28T06:51:01;4.23;-6.00
66726;HTU21D;53638;51.062;5.804;2024-02-28T06:53:50;4.37;-6.00
66726;HTU21D;53638;51.062;5.804;2024-02-28T06:56:19;4.51;-6.00
66726;HTU21D;53638;51.062;5.804;2024-02-28T06:59:20;4.57;-6.00
66726;HTU21D;53638;51.062;5.804;2024-02-28T07:01:45;4.50;-6.00
66726;HTU21D;53638;51.062;5.804;2024-02-28T07:04:11;4.44;-6.00
66726;HTU21D;53638;51.062;5.804;2024-02-28T07:06:38;4.43;-6.00
66726;HTU21D;53638;51.062;5.804;2024-02-28T07:09:04;4.54;-6.00
66726;HTU21D;53638;51.062;5.804;2024-02-28T07:11:30;4.68;-6.00
66726;HTU21D;53638;51.062;5.804;2024-02-28T07:13:56;4.77;-6.00
66726;HTU21D;53638;51.062;5.804;2024-02-28T07:16:23;4.76;-6.00
66726;HTU21D;53638;51.062;5.804;2024-02-28T07:18:49;4.78;-6.00
66726;HTU21D;53638;51.062;5.804;2024-02-28T07:21:15;4.87;-6.00
66726;HTU21D;53638;51.062;5.804;2024-02-28T07:23:41;4.97;-6.00
66726;HTU21D;53638;51.062;5.804;2024-02-28T07:26:07;5.03;-6.00
66726;HTU21D;53638;51.062;5.804;2024-02-28T07:28:33;5.08;-6.00
66726;HTU21D;53638;51.062;5.804;2024-02-28T07:30:59;5.07;-6.00
66726;HTU21D;53638;51.062;5.804;2024-02-28T07:33:25;5.09;-6.00
66726;HTU21D;53638;51.062;5.804;2024-02-28T07:35:52;5.12;-6.00
66726;HTU21D;53638;51.062;5.804;2024-02-28T07:38:18;5.12;-6.00
66726;HTU21D;53638;51.062;5.804;2024-02-28T07:40:47;5.23;-6.00
66726;HTU21D;53638;51.062;5.804;2024-02-28T07:43:13;5.26;-6.00
66726;HTU21D;53638;51.062;5.804;2024-02-28T07:45:39;5.31;-6.00
66726;HTU21D;53638;51.062;5.804;2024-02-28T07:48:06;5.41;-6.00
66726;HTU21D;53638;51.062;5.804;2024-02-28T07:50:32;5.56;-6.00
66726;HTU21D;53638;51.062;5.804;2024-02-28T07:52:58;5.69;-6.00
66726;HTU21D;53638;51.062;5.804;2024-02-28T07:55:24;5.65;-6.00
66726;HTU21D;53638;51.062;5.804;2024-02-28T07:57:52;5.56;-6.00
66726;HTU21D;53638;51.062;5.804;2024-02-28T08:00:18;5.53;-6.00
66726;HTU21D;53638;51.062;5.804;2024-02-28T08:02:45;5.39;-6.00
66726;HTU21D;53638;51.062;5.804;2024-02-28T08:05:13;5.45;-6.00
66726;HTU21D;53638;51.062;5.804;2024-02-28T08:07:39;5.49;-6.00
66726;HTU21D;53638;51.062;5.804;2024-02-28T08:10:06;5.56;-6.00
66726;HTU21D;53638;51.062;5.804;2024-02-28T08:12:32;5.68;-6.00
66726;HTU21D;53638;51.062;5.804;2024-02-28T08:14:58;5.68;-6.00
66726;HTU21D;53638;51.062;5.804;2024-02-28T08:17:24;5.83;-6.00
66726;HTU21D;53638;51.062;5.804;2024-02-28T08:19:50;5.96;-6.00
66726;HTU21D;53638;51.062;5.804;2024-02-28T08:22:16;5.99;-6.00
66726;HTU21D;53638;51.062;5.804;2024-02-28T08:24:42;6.15;-6.00
66726;HTU21D;53638;51.062;5.804;2024-02-28T08:27:08;6.27;-6.00
66726;HTU21D;53638;51.062;5.804;2024-02-28T08:29:33;6.34;-6.00
66726;HTU21D;53638;51.062;5.804;2024-02-28T08:32:01;6.41;-6.00
66726;HTU21D;53638;51.062;5.804;2024-02-28T08:34:28;6.63;-6.00
66726;HTU21D;53638;51.062;5.804;2024-02-28T08:36:54;6.64;-6.00
66726;HTU21D;53638;51.062;5.804;2024-02-28T08:39:20;6.42;-6.00
66726;HTU21D;53638;51.062;5.804;2024-02-28T08:41:46;6.34;-6.00
66726;HTU21D;53638;51.062;5.804;2024-02-28T08:44:12;6.41;-6.00
66726;HTU21D;53638;51.062;5.804;2024-02-28T08:46:38;6.44;-6.00
66726;HTU21D;53638;51.062;5.804;2024-02-28T08:49:04;6.45;-6.00
66726;HTU21D;53638;51.062;5.804;2024-02-28T08:51:30;6.46;-6.00
66726;HTU21D;53638;51.062;5.804;2024-02-28T08:53:56;6.48;-6.00
66726;HTU21D;53638;51.062;5.804;2024-02-28T08:56:25;6.58;-6.00
66726;HTU21D;53638;51.062;5.804;2024-02-28T08:58:51;6.58;-6.00
66726;HTU21D;53638;51.062;5.804;2024-02-28T09:01:17;6.43;-6.00
66726;HTU21D;53638;51.062;5.804;2024-02-28T09:03:43;6.48;-6.00
66726;HTU21D;53638;51.062;5.804;2024-02-28T09:06:10;6.68;-6.00
66726;HTU21D;53638;51.062;5.804;2024-02-28T09:08:47;6.75;-6.00
66726;HTU21D;53638;51.062;5.804;2024-02-28T09:11:13;6.86;-6.00
66726;HTU21D;53638;51.062;5.804;2024-02-28T09:13:51;7.14;-6.00
66726;HTU21D;53638;51.062;5.804;2024-02-28T09:16:20;7.46;-6.00
66726;HTU21D;53638;51.062;5.804;2024-02-28T09:18:46;7.60;-6.00
66726;HTU21D;53638;51.062;5.804;2024-02-28T09:21:12;7.70;-6.00
66726;HTU21D;53638;51.062;5.804;2024-02-28T09:23:38;7.85;-6.00
66726;HTU21D;53638;51.062;5.804;2024-02-28T09:26:07;8.02;-6.00
66726;HTU21D;53638;51.062;5.804;2024-02-28T09:28:33;8.12;-6.00
66726;HTU21D;53638;51.062;5.804;2024-02-28T09:30:59;8.06;-6.00
66726;HTU21D;53638;51.062;5.804;2024-02-28T09:33:25;7.87;-6.00
66726;HTU21D;53638;51.062;5.804;2024-02-28T09:35:51;7.73;-6.00
66726;HTU21D;53638;51.062;5.804;2024-02-28T09:38:18;7.71;-6.00
66726;HTU21D;53638;51.062;5.804;2024-02-28T09:40:47;7.58;-6.00
66726;HTU21D;53638;51.062;5.804;2024-02-28T09:43:36;7.48;-6.00
66726;HTU21D;53638;51.062;5.804;2024-02-28T09:46:04;7.50;-6.00
66726;HTU21D;53638;51.062;5.804;2024-02-28T09:48:31;7.56;-6.00
66726;HTU21D;53638;51.062;5.804;2024-02-28T09:50:58;7.44;-6.00
66726;HTU21D;53638;51.062;5.804;2024-02-28T09:53:26;7.45;-6.00
66726;HTU21D;53638;51.062;5.804;2024-02-28T09:55:52;7.55;-6.00
66726;HTU21D;53638;51.062;5.804;2024-02-28T09:58:19;7.76;-6.00
66726;HTU21D;53638;51.062;5.804;2024-02-28T10:00:52;7.89;-6.00
66726;HTU21D;53638;51.062;5.804;2024-02-28T10:03:21;7.74;-6.00
66726;HTU21D;53638;51.062;5.804;2024-02-28T10:06:06;7.56;-6.00
66726;HTU21D;53638;51.062;5.804;2024-02-28T10:11:20;7.71;-6.00
66726;HTU21D;53638;51.062;5.804;2024-02-28T10:13:47;7.79;-6.00
66726;HTU21D;53638;51.062;5.804;2024-02-28T10:16:13;7.69;-6.00
66726;HTU21D;53638;51.062;5.804;2024-02-28T10:18:43;7.53;-6.00
66726;HTU21D;53638;51.062;5.804;2024-02-28T10:21:10;7.59;-6.00
66726;HTU21D;53638;51.062;5.804;2024-02-28T10:23:38;7.65;-6.00
66726;HTU21D;53638;51.062;5.804;2024-02-28T10:26:05;7.84;-6.00
66726;HTU21D;53638;51.062;5.804;2024-02-28T10:28:36;8.05;-6.00
66726;HTU21D;53638;51.062;5.804;2024-02-28T10:31:04;8.20;-6.00
66726;HTU21D;53638;51.062;5.804;2024-02-28T10:33:30;8.30;-6.00
66726;HTU21D;53638;51.062;5.804;2024-02-28T10:35:59;8.59;-6.00
66726;HTU21D;53638;51.062;5.804;2024-02-28T10:38:26;8.85;-6.00
66726;HTU21D;53638;51.062;5.804;2024-02-28T10:40:53;8.93;-6.00
66726;HTU21D;53638;51.062;5.804;2024-02-28T10:43:20;9.14;-6.00
66726;HTU21D;53638;51.062;5.804;2024-02-28T10:45:46;9.40;-6.00
66726;HTU21D;53638;51.062;5.804;2024-02-28T10:48:14;9.62;-6.00
66726;HTU21D;53638;51.062;5.804;2024-02-28T10:50:44;9.79;-6.00
66726;HTU21D;53638;51.062;5.804;2024-02-28T10:53:13;10.08;-6.00
66726;HTU21D;53638;51.062;5.804;2024-02-28T10:55:41;10.50;-6.00
66726;HTU21D;53638;51.062;5.804;2024-02-28T10:58:10;10.75;-6.00
66726;HTU21D;53638;51.062;5.804;2024-02-28T11:00:39;10.83;-6.00
66726;HTU21D;53638;51.062;5.804;2024-02-28T11:03:05;10.78;-6.00
66726;HTU21D;53638;51.062;5.804;2024-02-28T11:05:37;11.07;-6.00
66726;HTU21D;53638;51.062;5.804;2024-02-28T11:08:09;11.91;-6.00
66726;HTU21D;53638;51.062;5.804;2024-02-28T11:10:40;13.23;-6.00
66726;HTU21D;53638;51.062;5.804;2024-02-28T11:13:07;14.65;-6.00
66726;HTU21D;53638;51.062;5.804;2024-02-28T11:15:34;15.18;-6.00
66726;HTU21D;53638;51.062;5.804;2024-02-28T11:18:08;15.71;-6.00
66726;HTU21D;53638;51.062;5.804;2024-02-28T11:20:56;16.28;-6.00
66726;HTU21D;53638;51.062;5.804;2024-02-28T11:23:22;16.65;-6.00
66726;HTU21D;53638;51.062;5.804;2024-02-28T11:25:48;16.85;-6.00
66726;HTU21D;53638;51.062;5.804;2024-02-28T11:28:15;17.16;-6.00
66726;HTU21D;53638;51.062;5.804;2024-02-28T11:30:41;17.32;-6.00
66726;HTU21D;53638;51.062;5.804;2024-02-28T11:33:07;17.40;-6.00
66726;HTU21D;53638;51.062;5.804;2024-02-28T11:35:35;17.15;-6.00
66726;HTU21D;53638;51.062;5.804;2024-02-28T11:38:01;17.15;-6.00
66726;HTU21D;53638;51.062;5.804;2024-02-28T11:40:27;17.11;-6.00
66726;HTU21D;53638;51.062;5.804;2024-02-28T11:42:55;16.92;-6.00
66726;HTU21D;53638;51.062;5.804;2024-02-28T11:45:22;16.63;-6.00
66726;HTU21D;53638;51.062;5.804;2024-02-28T11:47:48;16.71;-6.00
66726;HTU21D;53638;51.062;5.804;2024-02-28T11:50:17;16.67;-6.00
66726;HTU21D;53638;51.062;5.804;2024-02-28T11:52:45;16.45;-6.00
66726;HTU21D;53638;51.062;5.804;2024-02-28T11:55:11;16.82;-6.00
66726;HTU21D;53638;51.062;5.804;2024-02-28T11:57:40;16.90;-6.00
66726;HTU21D;53638;51.062;5.804;2024-02-28T12:00:08;17.28;-6.00
66726;HTU21D;53638;51.062;5.804;2024-02-28T12:02:36;17.80;-6.00
66726;HTU21D;53638;51.062;5.804;2024-02-28T12:05:11;18.81;-6.00
66726;HTU21D;53638;51.062;5.804;2024-02-28T12:07:37;19.17;-6.00
66726;HTU21D;53638;51.062;5.804;2024-02-28T12:10:04;19.00;-6.00
66726;HTU21D;53638;51.062;5.804;2024-02-28T12:12:35;18.99;-6.00
66726;HTU21D;53638;51.062;5.804;2024-02-28T12:15:02;19.28;-6.00
66726;HTU21D;53638;51.062;5.804;2024-02-28T12:17:35;19.68;-6.00
66726;HTU21D;53638;51.062;5.804;2024-02-28T12:20:02;20.22;-6.00
66726;HTU21D;53638;51.062;5.804;2024-02-28T12:22:28;20.36;-6.00
66726;HTU21D;53638;51.062;5.804;2024-02-28T12:24:54;20.02;-6.00
66726;HTU21D;53638;51.062;5.804;2024-02-28T12:27:20;19.76;-6.00
66726;HTU21D;53638;51.062;5.804;2024-02-28T12:29:46;19.85;-6.00
66726;HTU21D;53638;51.062;5.804;2024-02-28T12:32:12;19.51;-6.00
66726;HTU21D;53638;51.062;5.804;2024-02-28T12:34:38;19.02;-6.00
66726;HTU21D;53638;51.062;5.804;2024-02-28T12:37:04;18.41;-6.00
66726;HTU21D;53638;51.062;5.804;2024-02-28T12:39:30;18.28;-6.00
66726;HTU21D;53638;51.062;5.804;2024-02-28T12:42:00;18.17;-6.00
66726;HTU21D;53638;51.062;5.804;2024-02-28T12:44:26;17.51;-6.00
66726;HTU21D;53638;51.062;5.804;2024-02-28T12:46:52;17.30;-6.00
66726;HTU21D;53638;51.062;5.804;2024-02-28T12:49:18;17.21;-6.00
66726;HTU21D;53638;51.062;5.804;2024-02-28T12:51:45;17.40;-6.00
66726;HTU21D;53638;51.062;5.804;2024-02-28T12:54:12;17.54;-6.00
66726;HTU21D;53638;51.062;5.804;2024-02-28T12:56:40;17.34;-6.00
66726;HTU21D;53638;51.062;5.804;2024-02-28T12:59:09;17.28;-6.00
66726;HTU21D;53638;51.062;5.804;2024-02-28T13:01:35;17.23;-6.00
66726;HTU21D;53638;51.062;5.804;2024-02-28T13:04:01;17.07;-6.00
66726;HTU21D;53638;51.062;5.804;2024-02-28T13:06:27;16.65;-6.00
66726;HTU21D;53638;51.062;5.804;2024-02-28T13:08:54;16.34;-6.00
66726;HTU21D;53638;51.062;5.804;2024-02-28T13:11:22;15.97;-6.00
66726;HTU21D;53638;51.062;5.804;2024-02-28T13:13:58;15.82;-6.00
66726;HTU21D;53638;51.062;5.804;2024-02-28T13:16:31;15.52;-6.00
66726;HTU21D;53638;51.062;5.804;2024-02-28T13:18:57;15.42;-6.00
66726;HTU21D;53638;51.062;5.804;2024-02-28T13:21:23;15.44;-6.00
66726;HTU21D;53638;51.062;5.804;2024-02-28T13:23:49;15.34;-6.00
66726;HTU21D;53638;51.062;5.804;2024-02-28T13:26:15;15.19;-6.00
66726;HTU21D;53638;51.062;5.804;2024-02-28T13:28:54;15.34;-6.00
66726;HTU21D;53638;51.062;5.804;2024-02-28T13:31:20;15.52;-6.00
66726;HTU21D;53638;51.062;5.804;2024-02-28T13:33:49;15.51;-6.00
66726;HTU21D;53638;51.062;5.804;2024-02-28T13:36:15;15.49;-6.00
66726;HTU21D;53638;51.062;5.804;2024-02-28T13:38:41;15.68;-6.00
66726;HTU21D;53638;51.062;5.804;2024-02-28T13:41:07;16.06;-6.00
66726;HTU21D;53638;51.062;5.804;2024-02-28T13:43:33;16.79;-6.00
66726;HTU21D;53638;51.062;5.804;2024-02-28T13:45:59;17.66;-6.00
66726;HTU21D;53638;51.062;5.804;2024-02-28T13:48:27;18.25;-6.00
66726;HTU21D;53638;51.062;5.804;2024-02-28T13:50:55;18.79;-6.00
66726;HTU21D;53638;51.062;5.804;2024-02-28T13:53:20;18.81;-6.00
66726;HTU21D;53638;51.062;5.804;2024-02-28T13:55:48;18.87;-6.00
66726;HTU21D;53638;51.062;5.804;2024-02-28T13:58:20;18.50;-6.00
66726;HTU21D;53638;51.062;5.804;2024-02-28T14:00:47;17.94;-6.00
66726;HTU21D;53638;51.062;5.804;2024-02-28T14:03:14;17.48;-6.00
66726;HTU21D;53638;51.062;5.804;2024-02-28T14:05:40;16.95;-6.00
66726;HTU21D;53638;51.062;5.804;2024-02-28T14:08:07;16.32;-6.00
66726;HTU21D;53638;51.062;5.804;2024-02-28T14:10:34;15.74;-6.00
66726;HTU21D;53638;51.062;5.804;2024-02-28T14:13:01;15.52;-6.00
66726;HTU21D;53638;51.062;5.804;2024-02-28T14:15:27;15.51;-6.00
66726;HTU21D;53638;51.062;5.804;2024-02-28T14:17:54;15.46;-6.00
66726;HTU21D;53638;51.062;5.804;2024-02-28T14:20:20;15.37;-6.00
66726;HTU21D;53638;51.062;5.804;2024-02-28T14:22:46;15.14;-6.00
66726;HTU21D;53638;51.062;5.804;2024-02-28T14:25:14;15.09;-6.00
66726;HTU21D;53638;51.062;5.804;2024-02-28T14:27:44;15.14;-6.00
66726;HTU21D;53638;51.062;5.804;2024-02-28T14:30:12;14.91;-6.00
66726;HTU21D;53638;51.062;5.804;2024-02-28T14:32:42;14.44;-6.00
66726;HTU21D;53638;51.062;5.804;2024-02-28T14:35:14;13.95;-6.00
66726;HTU21D;53638;51.062;5.804;2024-02-28T14:37:40;13.50;-6.00
66726;HTU21D;53638;51.062;5.804;2024-02-28T14:40:08;13.16;-6.00
66726;HTU21D;53638;51.062;5.804;2024-02-28T14:42:39;12.87;-6.00
66726;HTU21D;53638;51.062;5.804;2024-02-28T14:45:07;12.79;-6.00
66726;HTU21D;53638;51.062;5.804;2024-02-28T14:47:34;12.71;-6.00
66726;HTU21D;53638;51.062;5.804;2024-02-28T14:50:03;12.66;-6.00
66726;HTU21D;53638;51.062;5.804;2024-02-28T14:52:30;12.71;-6.00
66726;HTU21D;53638;51.062;5.804;2024-02-28T14:54:56;12.81;-6.00
66726;HTU21D;53638;51.062;5.804;2024-02-28T14:57:22;12.93;-6.00
66726;HTU21D;53638;51.062;5.804;2024-02-28T14:59:48;12.99;-6.00
66726;HTU21D;53638;51.062;5.804;2024-02-28T15:02:13;12.97;-6.00
66726;HTU21D;53638;51.062;5.804;2024-02-28T15:04:40;12.99;-6.00
66726;HTU21D;53638;51.062;5.804;2024-02-28T15:07:06;13.03;-6.00
66726;HTU21D;53638;51.062;5.804;2024-02-28T15:09:32;13.05;-6.00
66726;HTU21D;53638;51.062;5.804;2024-02-28T15:12:00;12.96;-6.00
66726;HTU21D;53638;51.062;5.804;2024-02-28T15:14:26;13.00;-6.00
66726;HTU21D;53638;51.062;5.804;2024-02-28T15:16:51;13.15;-6.00
66726;HTU21D;53638;51.062;5.804;2024-02-28T15:19:19;13.21;-6.00
66726;HTU21D;53638;51.062;5.804;2024-02-28T15:21:45;13.17;-6.00
66726;HTU21D;53638;51.062;5.804;2024-02-28T15:24:12;13.16;-6.00
66726;HTU21D;53638;51.062;5.804;2024-02-28T15:26:40;13.09;-6.00
66726;HTU21D;53638;51.062;5.804;2024-02-28T15:29:06;12.97;-6.00
66726;HTU21D;53638;51.062;5.804;2024-02-28T15:31:32;12.96;-6.00
66726;HTU21D;53638;51.062;5.804;2024-02-28T15:33:58;13.12;-6.00